createdAt,value
2019-05-13T00:00:09.392Z,72.03
2019-05-13T00:01:09.383Z,73.16
2019-05-13T00:02:09.366Z,73.47
2019-05-13T00:03:09.356Z,73.88
2019-05-13T00:04:09.356Z,74.19
2019-05-13T00:05:09.343Z,72.96
2019-05-13T00:06:09.331Z,74.91
2019-05-13T00:07:09.318Z,73.88
2019-05-13T00:08:09.302Z,74.40
2019-05-13T00:09:09.291Z,73.68
2019-05-13T00:10:09.285Z,73.27
2019-05-13T00:11:09.269Z,73.98
2019-05-13T00:12:09.263Z,71.31
2019-05-13T00:13:09.251Z,73.16
2019-05-13T00:14:09.238Z,73.74
2019-05-13T00:15:09.245Z,72.65
2019-05-13T00:16:09.220Z,74.70
2019-05-13T00:17:09.212Z,74.70
2019-05-13T00:18:09.194Z,73.78
2019-05-13T00:19:09.188Z,73.16
2019-05-13T00:20:09.183Z,72.44
2019-05-13T00:21:09.162Z,74.40
2019-05-13T00:22:09.153Z,74.19
2019-05-13T00:23:09.144Z,73.78
2019-05-13T00:24:09.162Z,74.08
2019-05-13T00:25:09.130Z,73.57
2019-05-13T00:26:09.111Z,74.29
2019-05-13T00:27:09.097Z,72.65
2019-05-13T00:28:09.086Z,73.68
2019-05-13T00:29:09.098Z,71.83
2019-05-13T00:30:09.074Z,72.13
2019-05-13T00:31:09.068Z,70.39
2019-05-13T00:32:09.042Z,71.00
2019-05-13T00:33:09.031Z,72.85
2019-05-13T00:34:09.024Z,73.40
2019-05-13T00:35:09.042Z,73.91
2019-05-13T00:36:08.999Z,73.50
2019-05-13T00:37:11.712Z,73.40
2019-05-13T00:38:09.016Z,74.33
2019-05-13T00:39:08.971Z,73.71
2019-05-13T00:40:08.968Z,74.22
2019-05-13T00:41:08.948Z,74.02
2019-05-13T00:42:08.941Z,74.63
2019-05-13T00:43:08.933Z,73.81
2019-05-13T00:44:08.914Z,74.12
2019-05-13T00:45:08.933Z,74.63
2019-05-13T00:46:08.910Z,73.19
2019-05-13T00:47:08.887Z,72.99
2019-05-13T00:48:08.870Z,74.53
2019-05-13T00:49:08.859Z,74.12
2019-05-13T00:50:08.849Z,71.34
2019-05-13T00:51:08.847Z,72.17
2019-05-13T00:52:08.831Z,73.30
2019-05-13T00:53:08.823Z,72.06
2019-05-13T00:54:08.806Z,72.47
2019-05-13T00:55:10.069Z,73.19
2019-05-13T00:56:08.797Z,74.12
2019-05-13T00:57:08.775Z,73.61
2019-05-13T00:58:08.766Z,72.06
2019-05-13T00:59:08.784Z,72.89
2019-05-13T01:00:08.745Z,72.68
2019-05-13T01:01:08.735Z,73.71
2019-05-13T01:02:08.725Z,74.12
2019-05-13T01:03:08.746Z,74.33
2019-05-13T01:04:08.708Z,74.43
2019-05-13T01:05:08.690Z,72.38
2019-05-13T01:06:08.683Z,73.50
2019-05-13T01:07:22.888Z,74.53
2019-05-13T01:08:09.774Z,72.89
2019-05-13T01:09:08.650Z,74.12
2019-05-13T01:10:08.641Z,72.68
2019-05-13T01:11:08.628Z,71.86
2019-05-13T01:12:08.613Z,73.71
2019-05-13T01:13:08.603Z,72.38
2019-05-13T01:14:08.604Z,73.40
2019-05-13T01:15:08.591Z,72.17
2019-05-13T01:16:08.588Z,71.86
2019-05-13T01:17:08.560Z,72.58
2019-05-13T01:18:08.561Z,72.09
2019-05-13T01:19:08.539Z,74.02
2019-05-13T01:20:08.563Z,73.30
2019-05-13T01:21:08.601Z,72.81
2019-05-13T01:22:08.505Z,71.96
2019-05-13T01:23:08.495Z,74.67
2019-05-13T01:24:08.486Z,72.78
2019-05-13T01:25:08.477Z,73.19
2019-05-13T01:26:08.472Z,72.81
2019-05-13T01:27:08.452Z,72.72
2019-05-13T01:28:08.462Z,74.95
2019-05-13T01:29:08.431Z,73.74
2019-05-13T01:30:08.419Z,72.99
2019-05-13T01:31:08.419Z,73.23
2019-05-13T01:32:08.401Z,73.85
2019-05-13T01:33:08.387Z,73.13
2019-05-13T01:34:08.378Z,73.85
2019-05-13T01:35:08.393Z,74.57
2019-05-13T01:36:08.378Z,75.04
2019-05-13T01:37:08.355Z,73.19
2019-05-13T01:38:08.340Z,73.19
2019-05-13T01:39:08.323Z,71.69
2019-05-13T01:40:08.319Z,73.02
2019-05-13T01:41:08.310Z,72.61
2019-05-13T01:42:08.295Z,72.92
2019-05-13T01:43:08.284Z,73.54
2019-05-13T01:44:08.268Z,73.19
2019-05-13T01:45:08.258Z,73.44
2019-05-13T01:46:08.257Z,74.26
2019-05-13T01:47:08.239Z,74.15
2019-05-13T01:48:08.352Z,73.95
2019-05-13T01:49:08.215Z,75.08
2019-05-13T01:50:08.206Z,75.59
2019-05-13T01:51:08.202Z,73.23
2019-05-13T01:52:08.182Z,73.13
2019-05-13T01:53:08.178Z,72.20
2019-05-13T01:54:08.161Z,74.05
2019-05-13T01:55:08.153Z,73.13
2019-05-13T01:56:08.173Z,71.37
2019-05-13T01:57:08.131Z,72.30
2019-05-13T01:58:08.116Z,72.72
2019-05-13T01:59:08.111Z,75.08
2019-05-13T02:00:08.102Z,72.81
2019-05-13T02:01:08.085Z,72.72
2019-05-13T02:02:08.078Z,71.69
2019-05-13T02:03:08.066Z,72.81
2019-05-13T02:04:08.058Z,73.64
2019-05-13T02:05:08.049Z,72.92
2019-05-13T02:06:08.032Z,73.02
2019-05-13T02:07:08.025Z,74.67
2019-05-13T02:08:08.011Z,73.33
2019-05-13T02:09:08.002Z,73.13
2019-05-13T02:10:07.989Z,74.57
2019-05-13T02:11:08.012Z,73.13
2019-05-13T02:12:07.978Z,73.74
2019-05-13T02:13:07.957Z,74.60
2019-05-13T02:14:07.946Z,74.98
2019-05-13T02:15:07.933Z,73.78
2019-05-13T02:16:07.920Z,74.26
2019-05-13T02:17:07.917Z,76.42
2019-05-13T02:18:07.946Z,73.26
2019-05-13T02:19:07.899Z,73.88
2019-05-13T02:20:07.877Z,75.22
2019-05-13T02:21:07.881Z,74.60
2019-05-13T02:22:07.861Z,74.29
2019-05-13T02:23:07.844Z,73.88
2019-05-13T02:24:07.837Z,74.67
2019-05-13T02:25:07.947Z,73.36
2019-05-13T02:26:07.825Z,74.70
2019-05-13T02:27:07.818Z,74.19
2019-05-13T02:28:10.310Z,75.22
2019-05-13T02:29:07.787Z,76.45
2019-05-13T02:30:07.785Z,74.19
2019-05-13T02:31:07.761Z,73.47
2019-05-13T02:32:07.788Z,73.78
2019-05-13T02:33:07.742Z,74.60
2019-05-13T02:34:07.732Z,74.50
2019-05-13T02:35:07.724Z,73.06
2019-05-13T02:36:07.721Z,71.51
2019-05-13T02:37:07.703Z,73.16
2019-05-13T02:38:19.837Z,73.57
2019-05-13T02:39:08.675Z,73.78
2019-05-13T02:40:07.665Z,74.19
2019-05-13T02:41:07.651Z,73.68
2019-05-13T02:42:07.653Z,73.36
2019-05-13T02:43:07.629Z,73.36
2019-05-13T02:44:07.622Z,73.78
2019-05-13T02:45:07.607Z,73.98
2019-05-13T02:46:07.609Z,74.50
2019-05-13T02:47:07.597Z,74.29
2019-05-13T02:48:07.574Z,74.50
2019-05-13T02:49:07.566Z,72.54
2019-05-13T02:50:07.555Z,74.08
2019-05-13T02:51:07.552Z,73.26
2019-05-13T02:52:07.544Z,73.47
2019-05-13T02:53:07.523Z,74.12
2019-05-13T02:54:07.512Z,74.80
2019-05-13T02:55:07.497Z,76.04
2019-05-13T02:56:07.494Z,74.19
2019-05-13T02:57:07.510Z,74.43
2019-05-13T02:58:07.470Z,74.19
2019-05-13T02:59:07.454Z,73.30
2019-05-13T03:00:07.443Z,74.70
2019-05-13T03:01:07.459Z,73.81
2019-05-13T03:02:07.434Z,73.40
2019-05-13T03:03:07.421Z,74.84
2019-05-13T03:04:07.401Z,75.25
2019-05-13T03:05:07.389Z,73.91
2019-05-13T03:06:07.383Z,73.09
2019-05-13T03:07:07.372Z,74.12
2019-05-13T03:08:07.470Z,73.91
2019-05-13T03:09:07.343Z,73.54
2019-05-13T03:10:07.334Z,73.33
2019-05-13T03:11:07.329Z,72.81
2019-05-13T03:12:07.314Z,74.67
2019-05-13T03:13:07.309Z,75.39
2019-05-13T03:14:07.301Z,73.64
2019-05-13T03:15:07.304Z,75.67
2019-05-13T03:16:07.277Z,74.05
2019-05-13T03:17:07.267Z,75.25
2019-05-13T03:18:07.260Z,75.18
2019-05-13T03:19:07.237Z,76.32
2019-05-13T03:20:11.630Z,75.90
2019-05-13T03:21:08.214Z,75.39
2019-05-13T03:22:07.205Z,74.74
2019-05-13T03:23:07.231Z,75.25
2019-05-13T03:24:07.189Z,73.81
2019-05-13T03:25:07.176Z,74.88
2019-05-13T03:26:07.171Z,76.63
2019-05-13T03:27:07.151Z,76.42
2019-05-13T03:28:07.141Z,74.05
2019-05-13T03:29:07.134Z,73.54
2019-05-13T03:30:07.115Z,74.26
2019-05-13T03:31:08.034Z,75.32
2019-05-13T03:32:07.831Z,73.64
2019-05-13T03:33:10.830Z,75.08
2019-05-13T03:34:08.133Z,76.83
2019-05-13T03:35:08.694Z,75.90
2019-05-13T03:36:08.337Z,75.22
2019-05-13T03:37:08.164Z,76.42
2019-05-13T03:38:07.078Z,77.76
2019-05-13T03:39:14.484Z,76.93
2019-05-13T03:40:08.005Z,76.93
2019-05-13T03:41:07.001Z,75.70
2019-05-13T03:42:06.997Z,75.90
2019-05-13T03:43:06.997Z,77.04
2019-05-13T03:44:07.018Z,75.39
2019-05-13T03:45:06.953Z,75.39
2019-05-13T03:46:06.945Z,76.01
2019-05-13T03:47:06.930Z,76.53
2019-05-13T03:48:06.943Z,75.60
2019-05-13T03:49:06.908Z,74.57
2019-05-13T03:50:06.900Z,76.73
2019-05-13T03:51:06.920Z,76.42
2019-05-13T03:52:06.881Z,76.93
2019-05-13T03:53:06.897Z,76.53
2019-05-13T03:54:06.860Z,76.63
2019-05-13T03:55:06.858Z,77.14
2019-05-13T03:56:06.837Z,75.97
2019-05-13T03:57:06.831Z,76.42
2019-05-13T03:58:06.824Z,75.29
2019-05-13T03:59:06.810Z,75.18
2019-05-13T04:00:06.793Z,74.02
2019-05-13T04:01:06.782Z,74.33
2019-05-13T04:02:06.772Z,75.90
2019-05-13T04:03:06.759Z,76.42
2019-05-13T04:04:06.763Z,76.21
2019-05-13T04:05:06.736Z,75.81
2019-05-13T04:06:06.725Z,75.05
2019-05-13T04:07:06.717Z,75.60
2019-05-13T04:08:06.710Z,75.67
2019-05-13T04:09:22.517Z,73.64
2019-05-13T04:10:07.677Z,74.84
2019-05-13T04:11:06.709Z,77.00
2019-05-13T04:12:06.660Z,76.42
2019-05-13T04:13:07.132Z,74.88
2019-05-13T04:14:06.647Z,76.32
2019-05-13T04:15:06.677Z,75.70
2019-05-13T04:16:06.623Z,77.25
2019-05-13T04:17:06.613Z,76.83
2019-05-13T04:18:06.597Z,76.39
2019-05-13T04:19:06.594Z,75.70
2019-05-13T04:20:06.573Z,75.08
2019-05-13T04:21:06.576Z,75.81
2019-05-13T04:22:06.556Z,75.05
2019-05-13T04:23:06.542Z,75.60
2019-05-13T04:24:06.568Z,76.53
2019-05-13T04:25:06.541Z,76.53
2019-05-13T04:26:06.512Z,73.74
2019-05-13T04:27:06.588Z,73.81
2019-05-13T04:28:06.491Z,75.81
2019-05-13T04:29:06.480Z,75.49
2019-05-13T04:30:06.464Z,77.66
2019-05-13T04:31:06.458Z,72.92
2019-05-13T04:32:06.438Z,72.81
2019-05-13T04:33:06.427Z,74.16
2019-05-13T04:34:06.510Z,75.77
2019-05-13T04:35:06.423Z,76.93
2019-05-13T04:36:06.440Z,74.63
2019-05-13T04:37:06.386Z,75.97
2019-05-13T04:38:09.202Z,76.59
2019-05-13T04:39:07.370Z,76.49
2019-05-13T04:40:06.355Z,75.08
2019-05-13T04:41:06.375Z,78.24
2019-05-13T04:42:06.337Z,76.90
2019-05-13T04:43:06.325Z,76.18
2019-05-13T04:44:06.313Z,74.12
2019-05-13T04:45:06.298Z,74.53
2019-05-13T04:46:06.297Z,76.70
2019-05-13T04:47:06.281Z,75.77
2019-05-13T04:48:06.269Z,75.25
2019-05-13T04:49:06.599Z,75.15
2019-05-13T04:50:06.248Z,76.39
2019-05-13T04:51:06.231Z,75.97
2019-05-13T04:52:06.222Z,75.67
2019-05-13T04:53:06.214Z,75.05
2019-05-13T04:54:06.201Z,74.63
2019-05-13T04:55:06.202Z,74.95
2019-05-13T04:56:06.184Z,75.77
2019-05-13T04:57:06.167Z,74.74
2019-05-13T04:58:06.179Z,76.59
2019-05-13T04:59:06.142Z,75.87
2019-05-13T05:00:06.145Z,75.35
2019-05-13T05:01:09.140Z,74.12
2019-05-13T05:02:06.120Z,75.15
2019-05-13T05:03:06.153Z,74.63
2019-05-13T05:04:11.739Z,75.56
2019-05-13T05:05:07.100Z,75.60
2019-05-13T05:06:06.075Z,75.35
2019-05-13T05:07:06.065Z,75.77
2019-05-13T05:08:06.052Z,75.77
2019-05-13T05:09:06.041Z,74.33
2019-05-13T05:10:23.381Z,76.59
2019-05-13T05:11:07.023Z,75.05
2019-05-13T05:12:06.006Z,74.53
2019-05-13T05:13:06.003Z,73.61
2019-05-13T05:14:05.986Z,75.15
2019-05-13T05:15:05.975Z,75.25
2019-05-13T05:16:05.961Z,76.07
2019-05-13T05:17:05.972Z,75.35
2019-05-13T05:18:05.942Z,75.25
2019-05-13T05:19:05.934Z,77.00
2019-05-13T05:20:05.925Z,76.25
2019-05-13T05:21:05.904Z,75.63
2019-05-13T05:22:05.900Z,75.84
2019-05-13T05:23:05.891Z,75.73
2019-05-13T05:24:05.871Z,75.42
2019-05-13T05:25:05.870Z,75.84
2019-05-13T05:26:05.863Z,76.14
2019-05-13T05:27:05.849Z,74.40
2019-05-13T05:28:05.835Z,75.70
2019-05-13T05:29:05.823Z,77.55
2019-05-13T05:30:05.816Z,78.37
2019-05-13T05:31:05.799Z,74.15
2019-05-13T05:32:05.791Z,75.39
2019-05-13T05:33:05.781Z,75.18
2019-05-13T05:34:06.793Z,74.05
2019-05-13T05:35:05.777Z,73.85
2019-05-13T05:36:05.751Z,74.46
2019-05-13T05:37:05.738Z,72.89
2019-05-13T05:38:05.723Z,74.98
2019-05-13T05:39:05.714Z,76.31
2019-05-13T05:40:05.714Z,75.59
2019-05-13T05:41:05.693Z,74.26
2019-05-13T05:42:05.694Z,71.48
2019-05-13T05:43:05.670Z,72.30
2019-05-13T05:44:05.663Z,73.23
2019-05-13T05:45:05.665Z,73.64
2019-05-13T05:46:05.724Z,74.26
2019-05-13T05:47:05.628Z,75.29
2019-05-13T05:48:05.618Z,72.89
2019-05-13T05:49:05.608Z,73.71
2019-05-13T05:50:05.603Z,73.61
2019-05-13T05:51:05.594Z,73.19
2019-05-13T05:52:05.585Z,78.96
2019-05-13T05:53:05.572Z,75.76
2019-05-13T05:54:05.553Z,72.47
2019-05-13T05:55:05.549Z,73.88
2019-05-13T05:56:05.534Z,71.24
2019-05-13T05:57:05.522Z,74.91
2019-05-13T05:58:05.514Z,72.03
2019-05-13T05:59:05.500Z,73.47
2019-05-13T06:00:05.521Z,72.89
2019-05-13T06:01:05.474Z,73.78
2019-05-13T06:02:05.477Z,73.16
2019-05-13T06:03:05.461Z,74.19
2019-05-13T06:04:05.450Z,71.72
2019-05-13T06:05:05.437Z,75.63
2019-05-13T06:06:05.429Z,73.06
2019-05-13T06:07:05.433Z,72.75
2019-05-13T06:08:05.400Z,75.12
2019-05-13T06:09:05.394Z,73.36
2019-05-13T06:10:05.388Z,73.88
2019-05-13T06:11:05.400Z,74.57
2019-05-13T06:12:05.389Z,72.31
2019-05-13T06:13:05.353Z,73.33
2019-05-13T06:14:05.348Z,74.05
2019-05-13T06:15:05.337Z,74.87
2019-05-13T06:16:05.326Z,71.79
2019-05-13T06:17:05.308Z,72.61
2019-05-13T06:18:05.299Z,71.89
2019-05-13T06:19:05.299Z,74.87
2019-05-13T06:20:05.348Z,74.57
2019-05-13T06:21:05.266Z,75.29
2019-05-13T06:22:05.254Z,71.17
2019-05-13T06:23:05.244Z,71.17
2019-05-13T06:24:05.238Z,71.69
2019-05-13T06:25:05.226Z,70.97
2019-05-13T06:26:05.222Z,71.28
2019-05-13T06:27:05.201Z,72.10
2019-05-13T06:28:05.191Z,72.51
2019-05-13T06:29:05.243Z,71.48
2019-05-13T06:30:05.165Z,70.94
2019-05-13T06:31:05.160Z,74.02
2019-05-13T06:32:17.695Z,71.45
2019-05-13T06:33:06.138Z,72.06
2019-05-13T06:34:05.125Z,75.45
2019-05-13T06:35:05.117Z,70.94
2019-05-13T06:36:05.138Z,72.58
2019-05-13T06:37:05.096Z,71.55
2019-05-13T06:38:05.079Z,71.97
2019-05-13T06:39:05.126Z,70.22
2019-05-13T06:40:05.058Z,71.55
2019-05-13T06:41:09.266Z,71.66
2019-05-13T06:42:06.039Z,71.45
2019-05-13T06:43:05.036Z,72.27
2019-05-13T06:44:05.042Z,73.71
2019-05-13T06:45:05.009Z,72.55
2019-05-13T06:46:05.004Z,72.85
2019-05-13T06:47:04.989Z,73.36
2019-05-13T06:48:04.981Z,75.11
2019-05-13T06:49:04.963Z,70.70
2019-05-13T06:50:04.958Z,67.83
2019-05-13T06:51:04.951Z,69.47
2019-05-13T06:52:04.930Z,71.42
2019-05-13T06:53:08.273Z,71.69
2019-05-13T06:54:04.917Z,72.61
2019-05-13T06:55:04.903Z,67.38
2019-05-13T06:56:04.930Z,64.72
2019-05-13T06:57:06.187Z,68.00
2019-05-13T06:58:04.869Z,65.74
2019-05-13T06:59:04.867Z,67.05
2019-05-13T07:00:04.865Z,67.14
2019-05-13T07:01:04.878Z,67.35
2019-05-13T07:02:04.826Z,69.06
2019-05-13T07:03:04.838Z,66.81
2019-05-13T07:04:04.813Z,65.20
2019-05-13T07:05:04.848Z,68.86
2019-05-13T07:06:04.782Z,68.45
2019-05-13T07:07:13.163Z,68.45
2019-05-13T07:08:05.772Z,66.09
2019-05-13T07:09:04.747Z,65.89
2019-05-13T07:10:04.742Z,66.91
2019-05-13T07:11:17.813Z,65.34
2019-05-13T07:12:05.718Z,66.40
2019-05-13T07:13:04.715Z,67.08
2019-05-13T07:14:04.726Z,68.21
2019-05-13T07:15:04.687Z,69.54
2019-05-13T07:16:04.677Z,70.36
2019-05-13T07:17:04.670Z,66.98
2019-05-13T07:18:04.651Z,65.93
2019-05-13T07:19:04.706Z,68.49
2019-05-13T07:20:04.633Z,66.95
2019-05-13T07:21:04.620Z,65.01
2019-05-13T07:22:04.668Z,64.60
2019-05-13T07:23:04.596Z,63.57
2019-05-13T07:24:04.589Z,63.03
2019-05-13T07:25:04.578Z,64.09
2019-05-13T07:26:04.565Z,62.11
2019-05-13T07:27:04.568Z,63.24
2019-05-13T07:28:04.620Z,67.23
2019-05-13T07:29:05.140Z,66.89
2019-05-13T07:30:04.527Z,65.80
2019-05-13T07:31:04.520Z,64.64
2019-05-13T07:32:04.513Z,61.26
2019-05-13T07:33:04.489Z,61.98
2019-05-13T07:34:04.485Z,62.29
2019-05-13T07:35:04.614Z,65.66
2019-05-13T07:36:04.475Z,62.26
2019-05-13T07:37:04.461Z,62.57
2019-05-13T07:38:04.431Z,59.47
2019-05-13T07:39:04.424Z,62.46
2019-05-13T07:40:04.412Z,67.85
2019-05-13T07:41:04.403Z,62.02
2019-05-13T07:42:05.798Z,65.80
2019-05-13T07:43:04.380Z,62.74
2019-05-13T07:44:04.366Z,62.81
2019-05-13T07:45:04.360Z,68.84
2019-05-13T07:46:04.344Z,66.39
2019-05-13T07:47:04.345Z,61.69
2019-05-13T07:48:19.157Z,58.93
2019-05-13T07:49:05.384Z,64.22
2019-05-13T07:50:04.299Z,60.74
2019-05-13T07:51:04.985Z,61.87
2019-05-13T07:52:04.291Z,60.44
2019-05-13T07:53:04.268Z,61.97
2019-05-13T07:54:04.259Z,63.60
2019-05-13T07:55:04.243Z,60.61
2019-05-13T07:56:04.237Z,62.96
2019-05-13T07:57:04.240Z,65.41
2019-05-13T07:58:04.225Z,60.89
2019-05-13T07:59:04.207Z,65.78
2019-05-13T08:00:04.197Z,70.27
2019-05-13T08:01:04.181Z,65.99
2019-05-13T08:02:04.393Z,63.13
2019-05-13T08:03:04.157Z,62.18
2019-05-13T08:04:04.152Z,62.08
2019-05-13T08:05:04.137Z,59.64
2019-05-13T08:06:04.132Z,58.49
2019-05-13T08:07:04.138Z,64.70
2019-05-13T08:08:04.107Z,58.39
2019-05-13T08:09:04.100Z,66.10
2019-05-13T08:10:04.086Z,64.57
2019-05-13T08:11:04.069Z,61.72
2019-05-13T08:12:09.629Z,59.68
2019-05-13T08:13:05.051Z,62.10
2019-05-13T08:14:04.043Z,57.62
2019-05-13T08:15:04.034Z,59.86
2019-05-13T08:16:04.205Z,56.50
2019-05-13T08:17:04.006Z,61.29
2019-05-13T08:18:03.995Z,58.84
2019-05-13T08:19:03.983Z,57.52
2019-05-13T08:20:03.978Z,57.01
2019-05-13T08:21:03.960Z,57.79
2019-05-13T08:22:03.953Z,58.30
2019-05-13T08:23:03.942Z,63.70
2019-05-13T08:24:03.925Z,66.04
2019-05-13T08:25:03.914Z,61.97
2019-05-13T08:26:03.910Z,56.47
2019-05-13T08:27:03.898Z,63.46
2019-05-13T08:28:03.888Z,55.94
2019-05-13T08:29:05.921Z,55.73
2019-05-13T08:30:03.866Z,62.04
2019-05-13T08:31:03.855Z,62.93
2019-05-13T08:32:03.857Z,56.21
2019-05-13T08:33:03.856Z,55.30
2019-05-13T08:34:03.821Z,56.82
2019-05-13T08:35:08.950Z,55.68
2019-05-13T08:36:04.803Z,54.36
2019-05-13T08:37:03.793Z,55.25
2019-05-13T08:38:03.780Z,52.81
2019-05-13T08:39:03.766Z,49.26
2019-05-13T08:40:03.760Z,54.82
2019-05-13T08:41:03.748Z,56.21
2019-05-13T08:42:15.022Z,53.58
2019-05-13T08:43:06.785Z,52.73
2019-05-13T08:44:03.719Z,53.55
2019-05-13T08:45:03.705Z,54.74
2019-05-13T08:46:03.689Z,54.92
2019-05-13T08:47:03.718Z,48.31
2019-05-13T08:48:03.670Z,54.26
2019-05-13T08:49:04.040Z,49.38
2019-05-13T08:50:04.586Z,48.95
2019-05-13T08:51:03.658Z,44.37
2019-05-13T08:52:03.633Z,48.90
2019-05-13T08:53:03.630Z,48.88
2019-05-13T08:54:03.603Z,45.12
2019-05-13T08:55:03.593Z,45.02
2019-05-13T08:56:03.580Z,50.35
2019-05-13T08:57:03.568Z,45.20
2019-05-13T08:58:03.564Z,44.87
2019-05-13T08:59:03.553Z,42.55
2019-05-13T09:00:05.350Z,48.79
2019-05-13T09:01:03.565Z,49.39
2019-05-13T09:02:03.685Z,49.19
2019-05-13T09:03:06.188Z,49.16
2019-05-13T09:04:03.498Z,46.17
2019-05-13T09:05:03.548Z,48.28
2019-05-13T09:06:03.520Z,48.18
2019-05-13T09:07:03.465Z,44.45
2019-05-13T09:08:03.461Z,45.97
2019-05-13T09:09:03.438Z,49.11
2019-05-13T09:10:03.435Z,44.78
2019-05-13T09:11:03.416Z,48.83
2019-05-13T09:12:03.410Z,46.51
2019-05-13T09:13:03.399Z,49.74
2019-05-13T09:14:03.397Z,45.90
2019-05-13T09:15:03.661Z,44.92
2019-05-13T09:16:03.363Z,44.21
2019-05-13T09:17:03.357Z,47.24
2019-05-13T09:18:03.443Z,49.36
2019-05-13T09:19:03.922Z,53.20
2019-05-13T09:20:03.323Z,48.55
2019-05-13T09:21:03.311Z,47.16
2019-05-13T09:22:03.593Z,48.98
2019-05-13T09:23:03.342Z,51.91
2019-05-13T09:24:03.287Z,47.77
2019-05-13T09:25:03.267Z,53.00
2019-05-13T09:26:03.260Z,46.66
2019-05-13T09:27:03.245Z,45.25
2019-05-13T09:28:03.236Z,49.36
2019-05-13T09:29:03.231Z,47.44
2019-05-13T09:30:03.235Z,48.15
2019-05-13T09:31:03.209Z,45.30
2019-05-13T09:32:04.010Z,49.96
2019-05-13T09:33:03.184Z,46.64
2019-05-13T09:34:03.185Z,52.79
2019-05-13T09:35:03.283Z,55.72
2019-05-13T09:36:03.162Z,49.05
2019-05-13T09:37:03.314Z,40.58
2019-05-13T09:38:03.458Z,43.63
2019-05-13T09:39:03.120Z,45.16
2019-05-13T09:40:03.115Z,47.69
2019-05-13T09:41:03.096Z,42.66
2019-05-13T09:42:03.218Z,49.93
2019-05-13T09:43:03.074Z,52.39
2019-05-13T09:44:03.069Z,51.68
2019-05-13T09:45:03.060Z,50.77
2019-05-13T09:46:03.045Z,49.76
2019-05-13T09:47:03.106Z,48.39
2019-05-13T09:48:03.043Z,49.61
2019-05-13T09:49:14.836Z,46.68
2019-05-13T09:50:04.717Z,46.86
2019-05-13T09:51:02.994Z,46.53
2019-05-13T09:52:02.982Z,43.59
2019-05-13T09:53:03.020Z,46.81
2019-05-13T09:54:02.966Z,43.57
2019-05-13T09:55:03.266Z,42.54
2019-05-13T09:56:02.953Z,37.48
2019-05-13T09:57:02.941Z,46.53
2019-05-13T09:58:02.915Z,49.35
2019-05-13T09:59:02.929Z,41.27
2019-05-13T10:00:02.893Z,47.69
2019-05-13T10:01:02.887Z,39.84
2019-05-13T10:02:03.504Z,41.59
2019-05-13T10:03:02.946Z,44.71
2019-05-13T10:04:03.323Z,50.43
2019-05-13T10:05:02.842Z,47.39
2019-05-13T10:06:02.937Z,37.51
2019-05-13T10:07:02.929Z,42.33
2019-05-13T10:08:02.803Z,45.47
2019-05-13T10:09:02.817Z,48.29
2019-05-13T10:10:02.783Z,43.06
2019-05-13T10:11:02.776Z,38.15
2019-05-13T10:13:12.128Z,38.47
2019-05-13T10:14:03.746Z,44.51
2019-05-13T10:15:02.755Z,35.06
2019-05-13T10:16:02.722Z,37.21
2019-05-13T10:17:06.081Z,41.36
2019-05-13T10:18:02.753Z,44.01
2019-05-13T10:19:02.854Z,52.49
2019-05-13T10:20:02.722Z,49.79
2019-05-13T10:21:02.673Z,45.32
2019-05-13T10:22:02.656Z,53.70
2019-05-13T10:23:02.642Z,49.76
2019-05-13T10:24:02.632Z,47.42
2019-05-13T10:25:02.793Z,40.86
2019-05-13T10:26:03.468Z,38.13
2019-05-13T10:27:02.810Z,43.89
2019-05-13T10:28:02.584Z,41.14
2019-05-13T10:29:02.655Z,40.16
2019-05-13T10:30:02.573Z,42.98
2019-05-13T10:31:02.787Z,46.61
2019-05-13T10:32:03.589Z,44.49
2019-05-13T10:33:02.894Z,41.06
2019-05-13T10:34:02.712Z,43.89
2019-05-13T10:35:03.532Z,44.09
2019-05-13T10:36:03.769Z,44.70
2019-05-13T10:37:02.768Z,47.82
2019-05-13T10:38:04.363Z,38.34
2019-05-13T10:39:02.464Z,40.98
2019-05-13T10:40:02.733Z,45.62
2019-05-13T10:41:03.432Z,45.53
2019-05-13T10:42:03.664Z,44.11
2019-05-13T10:43:02.421Z,41.89
2019-05-13T10:44:03.202Z,45.42
2019-05-13T10:45:02.805Z,40.05
2019-05-13T10:46:02.955Z,41.47
2019-05-13T10:47:02.700Z,45.61
2019-05-13T10:48:02.933Z,44.70
2019-05-13T10:49:02.357Z,43.46
2019-05-13T10:50:02.997Z,37.01
2019-05-13T10:51:02.542Z,39.73
2019-05-13T10:52:03.097Z,42.64
2019-05-13T10:53:02.812Z,42.84
2019-05-13T10:54:02.300Z,43.65
2019-05-13T10:55:02.300Z,42.44
2019-05-13T10:56:03.346Z,42.41
2019-05-13T10:57:04.044Z,36.98
2019-05-13T10:58:02.543Z,38.79
2019-05-13T10:59:03.112Z,35.86
2019-05-13T11:00:03.353Z,35.86
2019-05-13T11:01:03.067Z,36.98
2019-05-13T11:02:02.573Z,43.71
2019-05-13T11:03:02.254Z,34.54
2019-05-13T11:04:02.796Z,36.76
2019-05-13T11:05:03.156Z,40.89
2019-05-13T11:06:02.183Z,37.73
2019-05-13T11:07:03.029Z,43.44
2019-05-13T11:08:02.229Z,35.30
2019-05-13T11:09:02.337Z,37.59
2019-05-13T11:10:02.746Z,33.47
2019-05-13T11:11:02.265Z,35.86
2019-05-13T11:12:02.354Z,36.57
2019-05-13T11:13:06.141Z,30.24
2019-05-13T11:14:10.049Z,31.14
2019-05-13T11:15:03.086Z,30.74
2019-05-13T11:16:02.561Z,35.57
2019-05-13T11:17:02.064Z,38.26
2019-05-13T11:18:03.082Z,37.40
2019-05-13T11:19:02.883Z,31.17
2019-05-13T11:20:03.396Z,36.68
2019-05-13T11:21:02.417Z,34.66
2019-05-13T11:22:03.028Z,33.74
2019-05-13T11:23:02.661Z,37.43
2019-05-13T11:24:03.301Z,36.41
2019-05-13T11:25:02.668Z,32.89
2019-05-13T11:26:03.182Z,33.20
2019-05-13T11:27:02.730Z,33.56
2019-05-13T11:28:01.947Z,27.47
2019-05-13T11:29:02.824Z,31.58
2019-05-13T11:30:05.613Z,30.10
2019-05-13T11:31:03.587Z,32.12
2019-05-13T11:32:02.744Z,28.23
2019-05-13T11:33:02.395Z,33.44
2019-05-13T11:34:02.214Z,32.15
2019-05-13T11:35:02.195Z,29.78
2019-05-13T11:36:03.224Z,39.95
2019-05-13T11:37:03.620Z,35.85
2019-05-13T11:38:01.886Z,38.34
2019-05-13T11:39:02.941Z,43.52
2019-05-13T11:40:02.791Z,37.79
2019-05-13T11:41:02.392Z,36.57
2019-05-13T11:42:02.509Z,40.05
2019-05-13T11:43:01.940Z,36.83
2019-05-13T11:44:12.455Z,30.51
2019-05-13T11:45:02.766Z,36.40
2019-05-13T11:46:02.389Z,34.59
2019-05-13T11:47:02.887Z,29.30
2019-05-13T11:48:02.462Z,36.10
2019-05-13T11:49:02.643Z,33.50
2019-05-13T11:50:02.580Z,36.58
2019-05-13T11:52:03.267Z,34.00
2019-05-13T11:53:05.980Z,38.16
2019-05-13T11:54:02.775Z,38.56
2019-05-13T11:55:02.572Z,39.89
2019-05-13T11:56:03.690Z,36.21
2019-05-13T11:57:06.195Z,37.01
2019-05-13T11:58:03.068Z,40.97
2019-05-13T11:59:04.407Z,33.66
2019-05-13T12:01:03.184Z,30.99
2019-05-13T12:03:04.244Z,34.63
2019-05-13T12:04:02.742Z,37.07
2019-05-13T12:05:03.759Z,38.39
2019-05-13T12:06:02.395Z,38.12
2019-05-13T12:07:03.428Z,38.24
2019-05-13T12:08:01.522Z,38.14
2019-05-13T12:09:03.134Z,38.26
2019-05-13T12:10:02.741Z,41.59
2019-05-13T12:11:04.182Z,39.38
2019-05-13T12:12:03.352Z,40.81
2019-05-13T12:13:01.468Z,38.81
2019-05-13T12:14:01.473Z,39.84
2019-05-13T12:15:27.133Z,34.02
2019-05-13T12:16:03.706Z,39.58
2019-05-13T12:17:02.257Z,39.37
2019-05-13T12:18:02.879Z,39.09
2019-05-13T12:19:03.433Z,40.60
2019-05-13T12:20:03.099Z,42.13
2019-05-13T12:21:03.241Z,35.78
2019-05-13T12:22:02.634Z,35.82
2019-05-13T12:23:03.453Z,37.63
2019-05-13T12:24:09.469Z,38.44
2019-05-13T12:25:02.500Z,41.18
2019-05-13T12:26:04.348Z,43.71
2019-05-13T12:27:03.667Z,42.60
2019-05-13T12:28:03.396Z,37.24
2019-05-13T12:29:02.805Z,42.52
2019-05-13T12:30:03.122Z,43.02
2019-05-13T12:31:03.314Z,45.54
2019-05-13T12:32:03.312Z,39.48
2019-05-13T12:33:03.141Z,41.30
2019-05-13T12:34:03.503Z,43.73
2019-05-13T12:35:03.581Z,40.09
2019-05-13T12:36:02.060Z,42.61
2019-05-13T12:37:03.230Z,39.91
2019-05-13T12:38:01.225Z,40.92
2019-05-13T12:39:01.197Z,36.15
2019-05-13T12:40:03.149Z,35.85
2019-05-13T12:41:05.046Z,36.86
2019-05-13T12:42:03.369Z,42.74
2019-05-13T12:43:02.115Z,47.59
2019-05-13T12:44:01.818Z,45.69
2019-05-13T12:45:09.336Z,46.07
2019-05-13T12:46:02.597Z,43.97
2019-05-13T12:48:03.298Z,41.97
2019-05-13T12:49:03.831Z,40.45
2019-05-13T12:50:03.201Z,40.05
2019-05-13T12:51:03.074Z,41.66
2019-05-13T12:52:04.431Z,38.24
2019-05-13T12:53:02.699Z,42.09
2019-05-13T12:54:03.735Z,43.71
2019-05-13T12:55:03.367Z,41.60
2019-05-13T12:56:03.228Z,39.48
2019-05-13T12:57:03.568Z,42.72